CheckWX is a tool to help pilots better visualize weather data.  It is not intended as a substitute for an official pre-flight weather briefing.

04:30:57 UTC

3D2 METAR
Ephraim-Gibraltar Airport
Ephraim, Wisconsin, USA
Current

16 mins ago

K3D2 240415Z AUTO 11004KT 1 3/4SM -SN OVC004 00/00 A3009 RMK AO2 T00001002
Observed
Jan-24 @ 04:15 UTC
Wind
  • 110° at 4 KTS
Visibility
1 3/4 SM
Flight Rules
LIFR
Conditions
Light Snow
Cloud Levels
  • Overcast at 400' AGL
Temperature
C / 32°F
Dewpoint
-0°C / 32°F
Humidity
100%
Altimeter
30.09" Hg
Pressure
1018.92 hPa
Previous

36 mins ago

K3D2 240355Z AUTO 12003KT 2 1/2SM -SN SCT008 OVC018 00/00 A3009 RMK AO2 T00001002
Observed
Jan-24 @ 03:55 UTC
Wind
  • 120° at 3 KTS
Visibility
2 1/2 SM
Flight Rules
IFR
Conditions
Light Snow
Cloud Levels
  • Scattered at 800' AGL
  • Overcast at 1,800' AGL
Temperature
C / 32°F
Dewpoint
-0°C / 32°F
Humidity
100%
Altimeter
30.09" Hg
Pressure
1018.92 hPa
Previous

56 mins ago

K3D2 240335Z AUTO 11003KT 2 1/2SM -SN SCT003 BKN008 OVC016 00/00 A3010 RMK AO2 T00001002
Observed
Jan-24 @ 03:35 UTC
Wind
  • 110° at 3 KTS
Visibility
2 1/2 SM
Flight Rules
IFR
Conditions
Light Snow
Cloud Levels
  • Scattered at 300' AGL
  • Broken at 800' AGL
  • Overcast at 1,600' AGL
Temperature
C / 32°F
Dewpoint
-0°C / 32°F
Humidity
100%
Altimeter
30.1" Hg
Pressure
1019.32 hPa